Flourtown, Pennsylvania
Current Conditions -  °F | °C
As of 11:35 AM on Tuesday 27 Jan 2015 (Local Time) from KLOM Reporting Station
Scattered Clouds Scattered Clouds  
Wind Chill: 25°   Ceiling: Unl
Heat Index: 30°   Visibility: 10mi
Dew Point: 18°   Wind: 5mph
Humidity: 60%   Direction: 330°NNW
Pressure: 29.73"   Gusts: NA
Location:  40.1°N, 75.21°W
Report Text: KLOM 271635Z AUTO 33004KT 10SM SCT015 SCT021 M01/M08 A2973 RMK AO1
Loading
Personal Weather Stations






























Interactive Weather Map New forecast layout! Learn more

10-Day Weather Forecast

Advertisements
Track Severe Weather on mobile